Ross Shire, United Kingdom
Current Conditions -  °F | °C
As of 12:50 PM on Saturday 25 Oct 2014 (Local Time) from EGPE Reporting Station
Rain Showers Rain Showers  
Wind Chill: 54°   Ceiling: Unl
Heat Index: 54°   Visibility: 6mi
Dew Point: 46°   Wind: 28mph
Humidity: 77%   Direction: 210°SSW
Pressure: 29.44"   Gusts: NA
Location:  57.61°N, 4.44°W
Report Text: EGPE 251150Z 21024KT 9999 VCSH FEW015 FEW025CB 12/08 Q0997
Loading
Personal Weather Stations






























Interactive Weather Map
Tropical Storm Tracking
New forecast layout! Learn more

10-Day Weather Forecast

Advertisements
Track Severe Weather on mobile